CheckWX is a tool to help pilots better visualize weather data.  It is not intended as a substitute for an official pre-flight weather briefing.

13:13:22 UTC

DAUA METAR
Touat Cheikh Sidi Mohamed Belkebir Airport
Algeria
Current

13 mins ago

DAUA 221300Z 04021KT 6000 DRSA NSC 24/04 Q1024
Observed
Feb-22 @ 13:00 UTC
Wind
  • 040° at 21 KTS
Visibility
6,003 meters
Flight Rules
MVFR
Conditions
Low drifting Sand
Cloud Levels
  • Clear skies
Temperature
24°C / 75°F
Dewpoint
C / 39°F
Humidity
27%
Altimeter
30.24" Hg
Pressure
1023.92 hPa
Previous

1 hour ago

DAUA 221200Z 03022KT 6000 DRSA NSC 23/04 Q1025
Observed
Feb-22 @ 12:00 UTC
Wind
  • 030° at 22 KTS
Visibility
6,003 meters
Flight Rules
MVFR
Conditions
Low drifting Sand
Cloud Levels
  • Clear skies
Temperature
23°C / 73°F
Dewpoint
C / 39°F
Humidity
29%
Altimeter
30.27" Hg
Pressure
1024.92 hPa
Previous

2 hours ago

DAUA 221100Z 02021KT 6000 DRSA NSC 20/03 Q1026
Observed
Feb-22 @ 11:00 UTC
Wind
  • 020° at 21 KTS
Visibility
6,003 meters
Flight Rules
MVFR
Conditions
Low drifting Sand
Cloud Levels
  • Clear skies
Temperature
20°C / 68°F
Dewpoint
C / 37°F
Humidity
33%
Altimeter
30.3" Hg
Pressure
1025.92 hPa